Time;durP1;ratioP1;P1;durP2;ratioP2;P2;SDS_P1;SDS_P2;PMS_P1;PMS_P2;Temp;Humidity;BMP_temperature;BMP_pressure;BME280_temperature;BME280_humidity;BME280_pressure;Samples;Min_cycle;Max_cycle;Signal;HPM_P1;HPM_P2
2023/06/07 00:00:15;;;;;;;24.60;23.43;;;24.20;54.60;;;;;;5050975;28;20491;-65
2023/06/07 00:02:42;;;;;;;24.00;22.80;;;24.20;54.80;;;;;;5051080;28;20499;-65
2023/06/07 00:05:10;;;;;;;23.80;22.70;;;24.10;54.90;;;;;;5050961;28;20444;-65
2023/06/07 00:07:38;;;;;;;24.20;23.10;;;24.20;55.00;;;;;;5053456;28;20444;-65
2023/06/07 00:10:06;;;;;;;23.97;22.80;;;24.10;55.10;;;;;;5054487;28;20543;-65
2023/06/07 00:12:34;;;;;;;24.13;22.93;;;24.10;55.30;;;;;;5054896;28;20894;-65
2023/06/07 00:15:01;;;;;;;24.20;23.00;;;24.10;55.50;;;;;;5054915;28;20475;-65
2023/06/07 00:17:28;;;;;;;25.17;23.87;;;24.00;55.80;;;;;;5054568;28;20567;-65
2023/06/07 00:19:56;;;;;;;24.77;23.27;;;24.00;55.90;;;;;;5054562;28;20814;-65
2023/06/07 00:22:22;;;;;;;23.83;22.40;;;24.10;56.50;;;;;;5054845;28;20806;-65
2023/06/07 00:24:52;;;;;;;24.23;23.03;;;24.00;56.60;;;;;;5054745;28;20472;-65
2023/06/07 00:27:19;;;;;;;25.13;23.50;;;24.00;56.70;;;;;;5054617;28;20451;-65
2023/06/07 00:29:46;;;;;;;24.10;22.80;;;24.00;57.10;;;;;;5054560;28;20448;-64
2023/06/07 00:32:13;;;;;;;24.43;23.00;;;24.00;57.00;;;;;;5054467;28;20503;-64
2023/06/07 00:34:40;;;;;;;24.80;23.30;;;24.00;57.30;;;;;;5054411;28;20440;-65
2023/06/07 00:37:07;;;;;;;23.90;22.70;;;24.00;57.60;;;;;;5054191;28;20495;-65
2023/06/07 00:39:34;;;;;;;24.43;23.00;;;23.90;57.90;;;;;;5054437;28;20479;-65
2023/06/07 00:42:02;;;;;;;23.90;22.60;;;23.90;58.00;;;;;;5054100;28;20514;-66
2023/06/07 00:44:29;;;;;;;25.10;23.73;;;23.90;58.30;;;;;;5054337;28;20483;-65
2023/06/07 00:46:56;;;;;;;25.30;23.90;;;23.90;58.60;;;;;;5054187;28;20483;-65
2023/06/07 00:49:23;;;;;;;25.10;23.80;;;23.90;58.50;;;;;;5054279;28;20502;-64
2023/06/07 00:51:50;;;;;;;24.40;23.20;;;23.90;59.00;;;;;;5053866;28;20490;-65
2023/06/07 00:54:18;;;;;;;24.30;23.10;;;23.90;59.20;;;;;;5054178;28;20472;-65
2023/06/07 00:56:49;;;;;;;24.00;22.80;;;23.90;59.40;;;;;;5053836;28;20518;-64
2023/06/07 00:59:18;;;;;;;25.17;23.67;;;23.90;59.20;;;;;;5063853;28;20475;-64
2023/06/07 01:01:47;;;;;;;23.40;22.30;;;23.80;59.60;;;;;;5059883;28;20467;-65
2023/06/07 01:04:14;;;;;;;24.80;23.40;;;23.80;59.70;;;;;;5054957;28;20483;-65
2023/06/07 01:06:41;;;;;;;25.10;23.80;;;23.80;59.80;;;;;;5053929;28;20939;-65
2023/06/07 01:09:13;;;;;;;24.53;22.93;;;23.80;59.90;;;;;;5053879;28;20467;-64
2023/06/07 01:11:41;;;;;;;23.30;22.20;;;23.80;59.90;;;;;;5053664;28;20464;-65
2023/06/07 01:14:09;;;;;;;24.10;22.80;;;23.80;60.10;;;;;;5068727;28;20447;-65
2023/06/07 01:16:39;;;;;;;24.33;22.77;;;23.70;60.40;;;;;;5073667;28;20470;-65
2023/06/07 01:19:06;;;;;;;25.37;23.97;;;23.70;60.40;;;;;;5072761;28;20875;-64
2023/06/07 01:21:35;;;;;;;24.33;23.10;;;23.70;60.30;;;;;;5066002;28;20507;-65
2023/06/07 01:24:04;;;;;;;24.73;23.37;;;23.70;60.50;;;;;;5053681;28;20448;-65
2023/06/07 01:26:31;;;;;;;25.70;24.17;;;23.70;60.30;;;;;;5053548;28;20884;-64
2023/06/07 01:29:07;;;;;;;24.27;23.00;;;23.70;60.40;;;;;;5053508;28;20506;-65
2023/06/07 01:31:36;;;;;;;23.90;22.70;;;23.70;60.60;;;;;;5059966;28;20471;-65
2023/06/07 01:34:04;;;;;;;24.43;23.07;;;23.70;60.50;;;;;;5071710;28;20555;-65
2023/06/07 01:36:32;;;;;;;24.13;22.93;;;23.70;60.60;;;;;;5073381;28;20475;-65
2023/06/07 01:39:00;;;;;;;23.80;22.57;;;23.70;60.90;;;;;;5073218;28;20486;-65
2023/06/07 01:41:30;;;;;;;25.03;23.57;;;23.60;61.10;;;;;;5066579;28;20579;-64
2023/06/07 01:43:59;;;;;;;24.97;23.53;;;23.60;61.40;;;;;;5053218;28;20954;-65
2023/06/07 01:46:27;;;;;;;24.93;23.40;;;23.60;61.40;;;;;;5053246;28;20967;-65
2023/06/07 01:48:54;;;;;;;24.40;23.17;;;23.60;61.30;;;;;;5053092;28;20532;-65
2023/06/07 01:51:21;;;;;;;24.50;23.30;;;23.60;61.40;;;;;;5071563;28;20474;-65
2023/06/07 01:53:50;;;;;;;24.90;23.60;;;23.60;61.50;;;;;;5072973;28;21083;-65
2023/06/07 01:56:25;;;;;;;24.77;23.57;;;23.60;61.30;;;;;;5073264;28;20830;-65
2023/06/07 01:59:03;;;;;;;23.57;22.37;;;23.60;61.80;;;;;;5072877;28;20544;-65
2023/06/07 02:01:41;;;;;;;26.03;24.43;;;23.60;61.80;;;;;;5052988;28;20464;-65
2023/06/07 02:04:12;;;;;;;23.73;22.33;;;23.60;61.90;;;;;;5056077;28;20857;-65
2023/06/07 02:06:44;;;;;;;24.67;23.17;;;23.50;62.00;;;;;;5072892;28;20475;-65
2023/06/07 02:09:13;;;;;;;26.50;24.87;;;23.50;62.00;;;;;;5072140;28;20474;-64
2023/06/07 02:11:41;;;;;;;24.90;23.30;;;23.50;62.30;;;;;;5052508;28;20491;-65
2023/06/07 02:14:10;;;;;;;23.80;22.40;;;23.50;61.80;;;;;;5052660;28;20479;-65
2023/06/07 02:16:37;;;;;;;25.33;23.70;;;23.50;62.00;;;;;;5052565;28;20448;-65
2023/06/07 02:19:06;;;;;;;24.80;23.50;;;23.50;62.00;;;;;;5052506;28;20522;-66
2023/06/07 02:21:34;;;;;;;24.13;22.93;;;23.50;61.80;;;;;;5071810;28;20578;-65
2023/06/07 02:24:02;;;;;;;25.43;24.00;;;23.50;61.80;;;;;;5072433;28;20522;-65
2023/06/07 02:26:29;;;;;;;23.87;22.57;;;23.50;61.60;;;;;;5072345;28;20922;-65
2023/06/07 02:28:56;;;;;;;24.43;22.93;;;23.50;61.90;;;;;;5060524;28;20468;-65
2023/06/07 02:31:25;;;;;;;24.07;22.80;;;23.50;61.60;;;;;;5052085;28;20484;-65
2023/06/07 02:33:52;;;;;;;23.70;22.50;;;23.50;61.80;;;;;;5052437;28;20932;-65
2023/06/07 02:36:22;;;;;;;24.30;23.10;;;23.50;61.60;;;;;;5052284;28;20870;-65
2023/06/07 02:38:49;;;;;;;24.33;22.70;;;23.40;62.00;;;;;;5061590;28;20502;-65
2023/06/07 02:41:16;;;;;;;24.70;23.40;;;23.40;62.00;;;;;;5071714;28;20475;-64
2023/06/07 02:43:43;;;;;;;24.50;23.20;;;23.40;62.20;;;;;;5072582;28;20482;-65
2023/06/07 02:46:11;;;;;;;23.97;22.67;;;23.40;62.00;;;;;;5071962;28;20436;-65
2023/06/07 02:48:39;;;;;;;24.20;23.00;;;23.40;61.80;;;;;;5063300;28;20444;-64
2023/06/07 02:51:07;;;;;;;25.00;23.60;;;23.40;61.90;;;;;;5051718;28;20452;-65
2023/06/07 02:53:34;;;;;;;24.20;22.80;;;23.40;61.70;;;;;;5051881;28;20811;-65
2023/06/07 02:56:01;;;;;;;24.60;23.20;;;23.40;61.30;;;;;;5051969;28;20881;-65
2023/06/07 02:58:28;;;;;;;24.77;23.40;;;23.40;61.90;;;;;;5058315;28;20558;-65
2023/06/07 03:00:56;;;;;;;24.87;23.53;;;23.40;61.90;;;;;;5071575;28;20448;-65
2023/06/07 03:03:24;;;;;;;26.13;24.63;;;23.40;61.70;;;;;;5071641;28;20459;-65
2023/06/07 03:05:52;;;;;;;25.43;23.90;;;23.40;61.70;;;;;;5071822;28;20528;-65
2023/06/07 03:08:19;;;;;;;24.40;23.10;;;23.30;61.70;;;;;;5065991;28;20532;-65
2023/06/07 03:10:46;;;;;;;24.80;23.30;;;23.40;61.70;;;;;;5051534;28;20901;-64
2023/06/07 03:13:13;;;;;;;25.17;23.40;;;23.30;61.90;;;;;;5051588;28;20551;-64
2023/06/07 03:15:40;;;;;;;25.10;23.80;;;23.30;62.10;;;;;;5051621;28;20880;-64
2023/06/07 03:18:07;;;;;;;25.10;23.80;;;23.30;61.60;;;;;;5051927;28;20939;-65
2023/06/07 03:20:34;;;;;;;24.47;23.13;;;23.30;61.30;;;;;;5051379;28;20476;-64
2023/06/07 03:23:04;;;;;;;24.07;22.87;;;23.30;61.50;;;;;;5051412;28;20475;-64
2023/06/07 03:25:31;;;;;;;24.60;23.23;;;23.30;61.70;;;;;;5051507;28;20548;-64
2023/06/07 03:27:58;;;;;;;23.47;22.17;;;23.30;61.90;;;;;;5053106;28;20483;-63
2023/06/07 03:30:25;;;;;;;24.53;23.20;;;23.30;61.80;;;;;;5071250;28;20545;-64
2023/06/07 03:32:52;;;;;;;24.83;23.37;;;23.30;61.60;;;;;;5070054;28;20503;-64
2023/06/07 03:35:19;;;;;;;24.50;23.10;;;23.20;61.80;;;;;;5051353;28;20458;-64
2023/06/07 03:37:46;;;;;;;24.77;23.30;;;23.20;61.60;;;;;;5051277;28;20535;-64
2023/06/07 03:40:15;;;;;;;25.30;24.00;;;23.20;61.60;;;;;;5050945;28;20523;-64
2023/06/07 03:42:42;;;;;;;24.17;22.87;;;23.20;61.60;;;;;;5050782;28;20481;-64
2023/06/07 03:45:09;;;;;;;25.43;24.00;;;23.20;61.60;;;;;;5051029;28;20471;-64
2023/06/07 03:47:37;;;;;;;25.57;24.27;;;23.20;61.90;;;;;;5051198;28;20535;-64
2023/06/07 03:50:05;;;;;;;24.33;23.03;;;23.20;61.60;;;;;;5050984;28;20535;-64
2023/06/07 03:52:32;;;;;;;27.07;25.57;;;23.20;61.70;;;;;;5050948;28;20519;-65
2023/06/07 03:54:59;;;;;;;26.03;24.20;;;23.10;61.70;;;;;;5050177;28;20449;-67
2023/06/07 03:57:27;;;;;;;25.47;23.83;;;23.20;62.30;;;;;;5050702;28;20483;-66
2023/06/07 03:59:54;;;;;;;27.23;25.40;;;23.20;63.10;;;;;;5050984;28;20575;-65
2023/06/07 04:02:21;;;;;;;27.70;25.90;;;23.10;64.40;;;;;;5051010;28;20495;-66
2023/06/07 04:04:49;;;;;;;28.80;26.97;;;23.00;70.70;;;;;;5050757;28;20448;-66
2023/06/07 04:07:17;;;;;;;28.83;27.13;;;23.00;73.20;;;;;;5050993;28;20459;-66
2023/06/07 04:09:44;;;;;;;26.37;24.50;;;23.00;77.10;;;;;;5051034;28;20444;-66
2023/06/07 04:12:11;;;;;;;28.67;26.50;;;22.90;75.50;;;;;;5050707;28;20483;-66
2023/06/07 04:14:39;;;;;;;27.40;25.87;;;22.90;82.70;;;;;;5049632;28;20472;-67
2023/06/07 04:17:06;;;;;;;27.90;26.20;;;22.90;75.30;;;;;;5050679;28;20866;-65
2023/06/07 04:19:33;;;;;;;26.50;24.70;;;22.80;72.00;;;;;;5050881;28;20566;-65
2023/06/07 04:22:04;;;;;;;25.63;24.33;;;22.80;71.10;;;;;;5050085;28;20499;-63
2023/06/07 04:24:31;;;;;;;26.83;25.03;;;22.80;70.20;;;;;;5050745;28;20451;-64
2023/06/07 04:26:58;;;;;;;25.53;24.13;;;22.80;69.30;;;;;;5050884;28;20452;-64
2023/06/07 04:29:26;;;;;;;26.10;24.60;;;22.90;68.90;;;;;;5050856;28;20491;-64
2023/06/07 04:31:56;;;;;;;25.13;23.60;;;23.00;68.30;;;;;;5050332;28;20464;-64
2023/06/07 04:34:23;;;;;;;25.53;24.13;;;23.00;67.90;;;;;;5050846;28;20444;-64
2023/06/07 04:36:50;;;;;;;24.90;23.60;;;23.10;67.10;;;;;;5050719;28;20448;-64
2023/06/07 04:39:18;;;;;;;24.77;23.57;;;23.10;66.70;;;;;;5050687;28;20480;-65
2023/06/07 04:41:45;;;;;;;24.33;22.97;;;23.10;66.00;;;;;;5050444;28;20480;-64
2023/06/07 04:44:12;;;;;;;25.70;24.23;;;23.20;65.90;;;;;;5050666;28;20590;-64
2023/06/07 04:46:40;;;;;;;24.57;23.30;;;23.20;65.30;;;;;;5050808;28;20466;-64
2023/06/07 04:49:08;;;;;;;24.27;22.97;;;23.20;65.40;;;;;;5050730;28;20834;-64
2023/06/07 04:51:36;;;;;;;25.40;24.10;;;23.20;65.10;;;;;;5050461;28;20546;-64
2023/06/07 04:54:04;;;;;;;25.40;23.67;;;23.20;64.60;;;;;;5052132;28;20455;-64
2023/06/07 04:56:31;;;;;;;24.90;23.50;;;23.30;64.60;;;;;;5054167;28;20448;-62
2023/06/07 04:58:58;;;;;;;26.30;24.90;;;23.30;64.30;;;;;;5054052;28;20584;-64
2023/06/07 05:01:25;;;;;;;24.43;23.23;;;23.30;63.90;;;;;;5053813;28;20554;-65
2023/06/07 05:04:00;;;;;;;24.00;22.80;;;23.30;64.00;;;;;;5054162;28;20480;-64
2023/06/07 05:06:31;;;;;;;23.67;22.57;;;23.30;64.00;;;;;;5054058;28;21043;-64
2023/06/07 05:08:57;;;;;;;24.30;23.00;;;23.30;63.90;;;;;;5053956;28;20444;-64
2023/06/07 05:11:24;;;;;;;24.50;23.17;;;23.30;63.20;;;;;;5053663;28;20475;-64
2023/06/07 05:13:51;;;;;;;24.40;23.10;;;23.30;63.10;;;;;;5053902;28;20455;-64
2023/06/07 05:16:19;;;;;;;24.77;23.30;;;23.30;63.00;;;;;;5053816;28;20830;-64
2023/06/07 05:18:48;;;;;;;24.40;23.10;;;23.40;62.90;;;;;;5053744;28;20583;-65
2023/06/07 05:21:16;;;;;;;23.73;22.63;;;23.30;62.80;;;;;;5053510;28;20448;-62
2023/06/07 05:23:44;;;;;;;23.97;22.77;;;23.30;62.80;;;;;;5053657;28;20539;-64
2023/06/07 05:26:12;;;;;;;24.20;22.90;;;23.30;62.40;;;;;;5053601;28;20444;-64
2023/06/07 05:28:39;;;;;;;23.77;22.67;;;23.40;62.50;;;;;;5053568;28;20471;-64
2023/06/07 05:31:06;;;;;;;24.20;23.00;;;23.40;62.40;;;;;;5053274;28;20491;-65
2023/06/07 05:33:32;;;;;;;24.17;22.87;;;23.40;62.20;;;;;;5053412;28;20480;-63
2023/06/07 05:36:00;;;;;;;23.87;22.67;;;23.40;62.20;;;;;;5053418;28;20519;-64
2023/06/07 05:38:26;;;;;;;24.43;23.13;;;23.40;62.00;;;;;;5053319;28;20478;-64
2023/06/07 05:40:55;;;;;;;24.90;23.33;;;23.40;62.10;;;;;;5053160;28;20938;-64
2023/06/07 05:43:22;;;;;;;25.47;23.80;;;23.40;62.00;;;;;;5052965;28;20480;-64
2023/06/07 05:45:50;;;;;;;24.67;23.47;;;23.40;62.00;;;;;;5053286;28;20475;-65
2023/06/07 05:48:16;;;;;;;24.77;23.43;;;23.40;61.90;;;;;;5053214;28;20480;-65
2023/06/07 05:50:43;;;;;;;25.77;24.20;;;23.40;61.50;;;;;;5052969;28;20860;-64
2023/06/07 05:53:10;;;;;;;24.97;23.67;;;23.40;61.80;;;;;;5053098;28;20507;-64
2023/06/07 05:55:37;;;;;;;24.60;23.30;;;23.40;62.20;;;;;;5053037;28;20506;-63
2023/06/07 05:58:05;;;;;;;25.83;24.33;;;23.40;61.90;;;;;;5052946;28;20487;-64
2023/06/07 06:00:33;;;;;;;23.60;22.40;;;23.50;62.10;;;;;;5052710;28;20925;-64
2023/06/07 06:03:01;;;;;;;24.83;23.53;;;23.50;63.10;;;;;;5052877;28;20469;-64
2023/06/07 06:05:28;;;;;;;26.27;25.07;;;23.50;62.30;;;;;;5052534;28;20448;-64
2023/06/07 06:07:56;;;;;;;25.10;23.90;;;23.50;62.30;;;;;;5052875;28;20539;-64
2023/06/07 06:10:23;;;;;;;25.87;24.57;;;23.50;62.40;;;;;;5052618;28;20444;-63
2023/06/07 06:12:50;;;;;;;25.63;24.43;;;23.50;62.50;;;;;;5052562;28;20496;-64
2023/06/07 06:15:18;;;;;;;25.90;24.43;;;23.50;62.70;;;;;;5052757;28;20479;-64
2023/06/07 06:17:45;;;;;;;25.60;24.20;;;23.50;62.50;;;;;;5052732;28;20480;-64
2023/06/07 06:20:16;;;;;;;27.23;25.83;;;23.50;62.90;;;;;;5052557;28;20512;-64
2023/06/07 06:22:43;;;;;;;26.37;25.07;;;23.50;62.60;;;;;;5052361;28;20537;-65
2023/06/07 06:25:12;;;;;;;24.73;23.53;;;23.50;62.50;;;;;;5052465;28;21002;-64
2023/06/07 06:27:38;;;;;;;25.47;24.17;;;23.50;62.70;;;;;;5052381;28;20509;-64
2023/06/07 06:30:07;;;;;;;24.20;23.10;;;23.50;62.70;;;;;;5052361;28;20527;-64
2023/06/07 06:32:35;;;;;;;25.43;24.20;;;23.50;62.70;;;;;;5052100;28;20496;-64
2023/06/07 06:35:03;;;;;;;25.47;24.17;;;23.50;63.00;;;;;;5052380;28;20495;-64
2023/06/07 06:37:30;;;;;;;26.50;25.10;;;23.50;62.80;;;;;;5052131;28;20445;-64
2023/06/07 06:39:56;;;;;;;25.03;23.83;;;23.50;62.90;;;;;;5052202;28;20491;-64
2023/06/07 06:42:23;;;;;;;26.83;25.43;;;23.50;62.70;;;;;;5051838;28;20563;-64
2023/06/07 06:44:50;;;;;;;25.43;24.03;;;23.60;62.70;;;;;;5052168;28;20535;-64
2023/06/07 06:47:17;;;;;;;25.60;24.27;;;23.50;62.90;;;;;;5052062;28;20480;-64
2023/06/07 06:49:45;;;;;;;25.43;24.13;;;23.50;63.20;;;;;;5052053;28;20480;-64
2023/06/07 06:52:12;;;;;;;24.47;23.37;;;23.50;63.00;;;;;;5051800;28;20464;-64
2023/06/07 06:54:39;;;;;;;24.60;23.40;;;23.50;62.90;;;;;;5051968;28;20539;-65
2023/06/07 06:57:08;;;;;;;26.23;24.70;;;23.60;63.10;;;;;;5051888;28;20482;-64
2023/06/07 06:59:35;;;;;;;25.17;23.97;;;23.60;63.00;;;;;;5051963;28;20491;-64
2023/06/07 07:02:02;;;;;;;25.70;24.20;;;23.60;62.80;;;;;;5051789;28;20471;-64
2023/06/07 07:04:30;;;;;;;26.00;24.67;;;23.60;63.10;;;;;;5051846;28;20480;-65
2023/06/07 07:06:58;;;;;;;25.53;24.33;;;23.50;63.10;;;;;;5051709;28;20457;-64
2023/06/07 07:09:25;;;;;;;25.60;24.10;;;23.50;63.50;;;;;;5051701;28;20472;-64
2023/06/07 07:11:52;;;;;;;24.60;23.33;;;23.50;63.50;;;;;;5051443;28;20955;-64
2023/06/07 07:14:19;;;;;;;25.57;24.27;;;23.50;63.30;;;;;;5051664;28;20542;-64
2023/06/07 07:16:46;;;;;;;25.93;24.50;;;23.50;63.60;;;;;;5050959;28;20480;-64
2023/06/07 07:19:13;;;;;;;25.43;24.20;;;23.50;63.40;;;;;;5051592;28;20472;-61
2023/06/07 07:21:40;;;;;;;26.17;24.67;;;23.60;63.60;;;;;;5051339;28;20496;-64
2023/06/07 07:24:09;;;;;;;25.60;24.30;;;23.50;63.40;;;;;;5051425;28;20448;-64
2023/06/07 07:26:38;;;;;;;27.00;25.50;;;23.60;63.30;;;;;;5051688;28;20480;-62
2023/06/07 07:29:05;;;;;;;25.23;24.03;;;23.60;63.10;;;;;;5051521;28;20487;-65
2023/06/07 07:31:33;;;;;;;25.83;24.43;;;23.60;63.20;;;;;;5051186;28;20905;-64
2023/06/07 07:34:00;;;;;;;25.10;23.90;;;23.60;63.70;;;;;;5051312;28;20449;-65
2023/06/07 07:36:28;;;;;;;26.03;24.63;;;23.60;63.40;;;;;;5051274;28;20590;-65
2023/06/07 07:38:55;;;;;;;25.67;24.33;;;23.60;63.60;;;;;;5051371;28;20535;-65
2023/06/07 07:41:23;;;;;;;26.23;24.63;;;23.60;64.80;;;;;;5050857;28;20519;-65
2023/06/07 07:43:51;;;;;;;26.43;25.03;;;23.60;63.80;;;;;;5051221;28;20480;-65
2023/06/07 07:46:18;;;;;;;28.73;27.03;;;23.60;63.90;;;;;;5051297;28;20491;-65
2023/06/07 07:48:45;;;;;;;25.70;24.40;;;23.60;63.90;;;;;;5051276;28;20509;-65
2023/06/07 07:51:12;;;;;;;26.43;25.13;;;23.60;64.00;;;;;;5050978;28;20991;-65
2023/06/07 07:53:39;;;;;;;25.53;24.23;;;23.60;64.30;;;;;;5051250;28;20586;-65
2023/06/07 07:56:06;;;;;;;25.53;24.13;;;23.60;64.10;;;;;;5051143;28;20503;-66
2023/06/07 07:58:34;;;;;;;26.30;24.70;;;23.50;64.30;;;;;;5051171;28;20472;-63
2023/06/07 08:01:01;;;;;;;25.13;23.97;;;23.60;64.20;;;;;;5050903;28;20575;-65
2023/06/07 08:03:28;;;;;;;26.10;24.80;;;23.60;64.10;;;;;;5051050;28;20468;-66
2023/06/07 08:05:56;;;;;;;26.50;25.00;;;23.60;64.10;;;;;;5051083;28;20462;-65
2023/06/07 08:08:23;;;;;;;26.67;25.27;;;23.50;64.30;;;;;;5051227;28;21008;-65
2023/06/07 08:10:50;;;;;;;25.83;24.20;;;23.60;64.00;;;;;;5050787;28;20480;-64
2023/06/07 08:13:17;;;;;;;26.17;24.87;;;23.60;63.80;;;;;;5050898;28;20476;-65
2023/06/07 08:15:47;;;;;;;27.60;25.90;;;23.60;64.00;;;;;;5050982;28;20487;-65
2023/06/07 08:18:16;;;;;;;25.73;24.53;;;23.60;64.40;;;;;;5050887;28;20527;-65
2023/06/07 08:20:43;;;;;;;26.67;25.27;;;23.60;64.30;;;;;;5050675;28;20519;-65
2023/06/07 08:23:10;;;;;;;26.93;25.43;;;23.60;64.10;;;;;;5050738;28;20496;-64
2023/06/07 08:25:37;;;;;;;26.13;24.83;;;23.60;64.50;;;;;;5050799;28;20934;-65
2023/06/07 08:28:04;;;;;;;25.83;24.53;;;23.60;64.40;;;;;;5052443;28;20527;-65
2023/06/07 08:30:31;;;;;;;26.93;25.33;;;23.60;64.20;;;;;;5054597;28;20502;-63
2023/06/07 08:33:00;;;;;;;26.67;25.10;;;23.60;64.10;;;;;;5054455;28;20495;-65
2023/06/07 08:35:26;;;;;;;27.20;25.60;;;23.60;64.10;;;;;;5054647;28;20447;-65
2023/06/07 08:37:53;;;;;;;26.97;25.47;;;23.60;64.70;;;;;;5054440;28;20471;-65
2023/06/07 08:40:20;;;;;;;27.77;26.20;;;23.60;65.10;;;;;;5054388;28;20566;-65
2023/06/07 08:42:48;;;;;;;26.63;25.27;;;23.60;65.00;;;;;;5088884;22;20490;-65
2023/06/07 08:45:16;;;;;;;27.30;25.60;;;23.60;65.30;;;;;;5086232;28;20518;-65
2023/06/07 08:47:44;;;;;;;28.47;26.77;;;23.60;65.50;;;;;;5094733;28;20810;-65
2023/06/07 08:50:16;;;;;;;26.27;24.73;;;23.60;65.90;;;;;;5094604;28;20427;-65
2023/06/07 08:52:48;;;;;;;27.67;26.00;;;23.60;66.10;;;;;;5094318;28;20536;-65
2023/06/07 08:55:15;;;;;;;27.33;25.53;;;23.50;66.60;;;;;;5094521;28;20441;-65
2023/06/07 08:57:42;;;;;;;28.03;26.33;;;23.60;66.90;;;;;;5094568;28;20473;-65
2023/06/07 09:00:11;;;;;;;27.30;25.53;;;23.60;67.10;;;;;;5094388;28;20478;-64
2023/06/07 09:02:38;;;;;;;27.53;25.93;;;23.60;67.50;;;;;;5094100;28;21054;-65
2023/06/07 09:05:06;;;;;;;26.93;25.40;;;23.50;68.10;;;;;;5094444;28;20442;-65
2023/06/07 09:07:35;;;;;;;27.23;25.63;;;23.50;67.70;;;;;;5094206;28;20446;-64
2023/06/07 09:10:02;;;;;;;28.10;26.60;;;23.50;68.10;;;;;;5094365;28;20448;-64
2023/06/07 09:12:29;;;;;;;26.90;25.37;;;23.50;68.20;;;;;;5094081;28;20458;-64
2023/06/07 09:14:57;;;;;;;26.97;25.50;;;23.50;68.10;;;;;;5094212;28;20450;-66
2023/06/07 09:17:24;;;;;;;27.37;25.90;;;23.50;68.40;;;;;;5094450;28;20453;-66
2023/06/07 09:19:52;;;;;;;27.53;25.80;;;23.50;69.20;;;;;;5094267;28;20948;-65
2023/06/07 09:22:25;;;;;;;26.80;25.40;;;23.50;69.50;;;;;;5093977;28;20481;-65
2023/06/07 09:24:55;;;;;;;27.17;25.67;;;23.50;69.20;;;;;;5093994;28;20994;-65
2023/06/07 09:27:31;;;;;;;27.80;26.10;;;23.50;69.40;;;;;;5093991;28;20450;-65
2023/06/07 09:30:04;;;;;;;28.03;26.50;;;23.50;69.40;;;;;;5093942;28;20450;-65
2023/06/07 09:32:37;;;;;;;27.30;25.90;;;23.50;69.20;;;;;;5093792;28;21026;-64
2023/06/07 09:35:22;;;;;;;26.67;25.27;;;23.50;69.40;;;;;;5093948;28;20506;-64
2023/06/07 09:37:51;;;;;;;27.40;25.90;;;23.50;70.00;;;;;;5093820;28;20462;-64
2023/06/07 09:40:19;;;;;;;27.17;25.87;;;23.50;70.00;;;;;;5093402;28;20959;-63
2023/06/07 09:42:57;;;;;;;27.50;25.80;;;23.50;69.90;;;;;;5093672;28;20529;-64
2023/06/07 09:45:25;;;;;;;27.60;25.70;;;23.50;69.70;;;;;;5093959;28;20927;-64
2023/06/07 09:48:02;;;;;;;26.20;24.77;;;23.50;69.70;;;;;;5093731;28;20453;-65
2023/06/07 09:50:29;;;;;;;28.17;26.53;;;23.50;69.90;;;;;;5096087;28;21008;-63
2023/06/07 09:52:56;;;;;;;26.80;25.30;;;23.40;69.90;;;;;;5094846;28;20498;-63
2023/06/07 09:55:30;;;;;;;27.27;25.47;;;23.50;69.80;;;;;;5095241;28;20427;-62
2023/06/07 09:57:57;;;;;;;27.17;25.37;;;23.50;70.00;;;;;;5094350;28;20446;-63
2023/06/07 10:00:25;;;;;;;27.43;25.90;;;23.50;70.40;;;;;;5094263;28;20575;-64
2023/06/07 10:02:52;;;;;;;28.53;26.90;;;23.40;70.30;;;;;;5093523;28;20478;-64
2023/06/07 10:05:21;;;;;;;27.70;26.10;;;23.40;70.50;;;;;;5093547;28;20986;-64
2023/06/07 10:07:50;;;;;;;28.10;26.40;;;23.40;70.90;;;;;;5093339;28;20446;-63
2023/06/07 10:10:21;;;;;;;26.73;25.33;;;23.40;71.00;;;;;;5093338;28;20471;-64
2023/06/07 10:12:52;;;;;;;27.90;26.10;;;23.40;70.80;;;;;;5092865;28;20466;-64
2023/06/07 10:15:24;;;;;;;29.90;27.60;;;23.40;70.90;;;;;;5093213;28;20442;-64
2023/06/07 10:17:58;;;;;;;29.80;28.00;;;23.50;71.50;;;;;;5093002;28;20446;-64
2023/06/07 10:20:29;;;;;;;27.03;25.53;;;23.40;71.80;;;;;;5092872;28;20530;-64
2023/06/07 10:23:01;;;;;;;28.80;27.13;;;23.40;71.90;;;;;;5092658;28;20494;-64
2023/06/07 10:25:31;;;;;;;28.67;26.90;;;23.40;72.30;;;;;;5092937;28;20975;-65
2023/06/07 10:28:15;;;;;;;29.23;27.40;;;23.40;73.20;;;;;;5092710;28;20454;-65
2023/06/07 10:30:47;;;;;;;28.03;26.33;;;23.40;72.60;;;;;;5092846;28;20435;-64
2023/06/07 10:33:16;;;;;;;26.77;25.37;;;23.40;72.60;;;;;;5092757;28;20462;-64
2023/06/07 10:35:45;;;;;;;26.73;25.20;;;23.40;72.40;;;;;;5092777;28;20541;-64
2023/06/07 10:38:13;;;;;;;27.30;25.90;;;23.40;72.30;;;;;;5092646;28;20489;-64
2023/06/07 10:40:41;;;;;;;29.40;27.70;;;23.40;72.50;;;;;;5092439;28;20478;-64
2023/06/07 10:43:10;;;;;;;28.00;26.50;;;23.40;72.10;;;;;;5092103;28;20510;-65
2023/06/07 10:45:37;;;;;;;28.93;27.13;;;23.40;72.20;;;;;;5092460;28;20470;-66
2023/06/07 10:48:43;;;;;;;27.63;26.00;;;23.40;72.60;;;;;;5092426;28;20960;-64
2023/06/07 10:51:10;;;;;;;28.20;26.70;;;23.40;71.90;;;;;;5087823;28;20507;-66
2023/06/07 10:53:54;;;;;;;27.67;26.23;;;23.40;72.30;;;;;;5092235;28;20471;-64
2023/06/07 10:56:31;;;;;;;28.47;26.97;;;23.40;73.20;;;;;;5092315;28;20438;-64
2023/06/07 10:59:21;;;;;;;29.00;27.30;;;23.40;72.80;;;;;;5092114;28;20474;-64
2023/06/07 11:01:50;;;;;;;28.57;26.87;;;23.40;73.30;;;;;;5091727;28;20478;-64
2023/06/07 11:04:51;;;;;;;28.77;27.10;;;23.40;73.70;;;;;;5091971;28;20446;-64
2023/06/07 11:07:20;;;;;;;31.00;28.90;;;23.40;73.70;;;;;;5092217;28;20847;-64
2023/06/07 11:09:48;;;;;;;28.70;26.83;;;23.40;73.60;;;;;;5092002;28;20506;-65
2023/06/07 11:12:52;;;;;;;28.77;27.10;;;23.40;73.50;;;;;;5091780;28;20866;-64
2023/06/07 11:15:27;;;;;;;29.50;27.80;;;23.40;73.60;;;;;;5091917;28;20535;-64
2023/06/07 11:17:56;;;;;;;30.30;28.60;;;23.40;73.70;;;;;;5092107;28;20442;-64
2023/06/07 11:20:50;;;;;;;30.30;28.60;;;23.40;73.80;;;;;;5091788;28;20474;-66
2023/06/07 11:23:30;;;;;;;32.83;30.93;;;23.40;73.60;;;;;;5091572;28;20528;-65
2023/06/07 11:26:00;;;;;;;32.60;30.60;;;23.50;74.90;;;;;;5091760;28;20454;-66
2023/06/07 11:28:29;;;;;;;30.93;29.20;;;23.40;74.40;;;;;;5091810;28;20466;-65
2023/06/07 11:30:57;;;;;;;31.63;29.53;;;23.50;74.40;;;;;;5091527;28;20865;-65
2023/06/07 11:33:25;;;;;;;31.90;30.10;;;23.40;74.40;;;;;;5091532;28;20502;-66
2023/06/07 11:35:52;;;;;;;33.13;31.13;;;23.40;74.50;;;;;;5091621;28;20525;-66
2023/06/07 11:38:20;;;;;;;33.80;31.80;;;23.50;75.20;;;;;;5091631;28;20449;-64
2023/06/07 11:40:48;;;;;;;34.17;31.97;;;23.50;74.30;;;;;;5091507;28;20521;-65
2023/06/07 11:43:16;;;;;;;35.67;33.37;;;23.50;74.10;;;;;;5091154;28;20502;-65
2023/06/07 11:45:44;;;;;;;36.33;33.97;;;23.50;74.70;;;;;;5091603;28;20481;-65
2023/06/07 11:48:12;;;;;;;35.80;33.60;;;23.50;74.70;;;;;;5091273;28;20438;-65
2023/06/07 11:50:40;;;;;;;36.40;34.10;;;23.50;75.10;;;;;;5091365;28;20438;-65
2023/06/07 11:53:09;;;;;;;38.27;35.77;;;23.50;75.20;;;;;;5091310;28;20498;-65
2023/06/07 11:55:37;;;;;;;41.87;38.73;;;23.50;75.90;;;;;;5091685;28;20453;-66
2023/06/07 11:58:05;;;;;;;38.43;35.40;;;23.50;76.30;;;;;;5091409;28;20508;-65
2023/06/07 12:00:33;;;;;;;39.40;36.80;;;23.50;76.70;;;;;;5091438;28;20457;-65
2023/06/07 12:03:01;;;;;;;42.73;39.63;;;23.50;77.20;;;;;;5092906;28;20505;-65
2023/06/07 12:05:34;;;;;;;40.03;37.27;;;23.50;77.50;;;;;;5095347;28;20965;-65
2023/06/07 12:08:04;;;;;;;40.50;37.60;;;23.50;77.80;;;;;;5095541;28;20464;-65
2023/06/07 12:10:33;;;;;;;42.27;39.47;;;23.40;77.90;;;;;;5095459;28;20507;-65
2023/06/07 12:13:10;;;;;;;39.93;36.90;;;23.50;78.20;;;;;;5095093;28;20470;-65
2023/06/07 12:15:47;;;;;;;43.30;39.90;;;23.50;78.40;;;;;;5095298;28;20544;-65
2023/06/07 12:18:16;;;;;;;39.17;36.37;;;23.50;78.20;;;;;;5095191;28;20478;-65
2023/06/07 12:20:45;;;;;;;41.87;38.60;;;23.60;77.70;;;;;;5095209;28;20450;-65
2023/06/07 12:23:14;;;;;;;37.90;35.30;;;23.60;77.40;;;;;;5094874;28;20508;-65
2023/06/07 12:25:41;;;;;;;37.97;35.53;;;23.60;77.90;;;;;;5095127;28;20527;-65
2023/06/07 12:28:11;;;;;;;38.47;35.77;;;23.50;78.20;;;;;;5095038;28;20907;-66
2023/06/07 12:30:40;;;;;;;37.60;35.17;;;23.60;77.60;;;;;;5095054;28;20442;-66
2023/06/07 12:33:13;;;;;;;39.97;37.13;;;23.60;77.90;;;;;;5094718;28;20523;-65
2023/06/07 12:35:46;;;;;;;39.37;36.43;;;23.60;78.10;;;;;;5095032;28;20804;-66